Time;durP1;ratioP1;P1;durP2;ratioP2;P2;SDS_P1;SDS_P2;PMS_P1;PMS_P2;Temp;Humidity;BMP_temperature;BMP_pressure;BME280_temperature;BME280_humidity;BME280_pressure;Samples;Min_cycle;Max_cycle;Signal;HPM_P1;HPM_P2
2022/01/24 00:01:04;;;;;;;58.35;52.88;;;17.40;56.00;;;;;;4991808;28;92834;-72
2022/01/24 00:03:29;;;;;;;59.40;53.67;;;17.40;55.90;;;;;;4991364;28;95376;-71
2022/01/24 00:05:56;;;;;;;57.67;52.13;;;17.40;55.80;;;;;;4993391;28;92853;-72
2022/01/24 00:08:22;;;;;;;57.88;52.30;;;17.40;55.70;;;;;;4992291;28;94011;-71
2022/01/24 00:10:49;;;;;;;56.60;51.47;;;17.40;55.70;;;;;;4993249;28;94090;-72
2022/01/24 00:26:47;;;;;;;52.33;47.17;;;17.30;55.70;;;;;;4993209;28;92529;-71
2022/01/24 00:29:19;;;;;;;51.10;46.47;;;17.30;55.70;;;;;;4992380;28;97573;-71
2022/01/24 00:31:46;;;;;;;50.85;46.10;;;17.30;55.70;;;;;;4993417;28;95333;-71
2022/01/24 00:34:12;;;;;;;51.25;46.20;;;17.30;55.70;;;;;;4993747;28;92640;-71
2022/01/24 00:36:39;;;;;;;50.45;45.70;;;17.30;55.70;;;;;;4992593;28;92585;-71
2022/01/24 00:39:06;;;;;;;49.60;44.70;;;17.30;55.70;;;;;;4992782;28;93945;-71
2022/01/24 00:41:43;;;;;;;49.13;44.65;;;17.30;55.70;;;;;;4992882;28;92835;-71
2022/01/24 00:44:39;;;;;;;48.95;44.20;;;17.30;55.70;;;;;;4993350;28;92632;-70
2022/01/24 00:47:04;;;;;;;48.00;43.50;;;17.20;55.60;;;;;;4995188;28;94314;-70
2022/01/24 00:54:44;;;;;;;44.92;40.88;;;17.20;55.50;;;;;;4991498;28;94950;-71
2022/01/24 00:57:11;;;;;;;45.30;41.05;;;17.20;55.50;;;;;;4991542;28;93132;-71
2022/01/24 00:59:37;;;;;;;43.58;39.40;;;17.20;55.40;;;;;;4991762;28;95414;-71
2022/01/24 01:02:04;;;;;;;43.15;39.25;;;17.20;55.40;;;;;;4991272;28;92574;-71
2022/01/24 01:05:22;;;;;;;43.53;39.63;;;17.20;55.40;;;;;;4991431;28;92512;-71
2022/01/24 01:07:40;;;;;;;41.58;37.88;;;17.20;55.30;;;;;;4979710;28;93969;-71
2022/01/24 01:18:21;;;;;;;40.53;36.88;;;17.10;55.30;;;;;;4992705;28;92496;-69
2022/01/24 01:23:19;;;;;;;39.08;35.53;;;17.10;55.20;;;;;;4992317;28;95841;-71
2022/01/24 01:25:46;;;;;;;39.17;35.45;;;17.10;55.10;;;;;;4991772;28;92951;-71
2022/01/24 01:28:13;;;;;;;38.17;34.53;;;17.10;55.10;;;;;;4992973;28;92427;-71
2022/01/24 01:30:44;;;;;;;37.15;33.65;;;17.10;55.20;;;;;;4991504;28;94933;-72
2022/01/24 01:36:19;;;;;;;37.22;33.67;;;17.10;55.10;;;;;;4910879;28;92822;-71
2022/01/24 01:39:27;;;;;;;36.35;33.17;;;17.10;55.10;;;;;;4982548;28;92695;-71
2022/01/24 01:53:03;;;;;;;33.97;30.88;;;17.00;55.00;;;;;;4991398;28;92676;-73
2022/01/24 01:55:39;;;;;;;33.42;30.33;;;17.00;55.00;;;;;;4989997;28;94008;-72
2022/01/24 01:58:13;;;;;;;32.28;29.27;;;17.00;54.90;;;;;;4991219;28;92577;-71
2022/01/24 02:00:46;;;;;;;32.50;29.35;;;17.00;54.90;;;;;;4991676;28;92878;-71
2022/01/24 02:03:12;;;;;;;32.08;28.98;;;17.00;54.90;;;;;;4992113;28;93035;-70
2022/01/24 02:05:37;;;;;;;32.25;29.45;;;17.00;54.90;;;;;;4991718;28;93021;-70
2022/01/24 02:08:03;;;;;;;31.25;28.45;;;17.00;54.80;;;;;;4990757;28;92537;-70
2022/01/24 02:10:31;;;;;;;30.38;27.67;;;17.00;54.90;;;;;;4990544;28;92915;-71
2022/01/24 02:12:57;;;;;;;30.13;27.38;;;17.00;54.80;;;;;;4990515;28;95417;-71
2022/01/24 02:15:54;;;;;;;30.30;27.58;;;17.00;54.80;;;;;;4993886;28;95091;-71
2022/01/24 02:25:51;;;;;;;28.95;26.45;;;16.90;54.60;;;;;;4993570;28;92999;-71
2022/01/24 02:28:20;;;;;;;28.13;25.63;;;16.90;54.70;;;;;;4994638;28;92444;-71
2022/01/24 02:33:30;;;;;;;26.88;24.52;;;16.90;54.70;;;;;;4994417;28;93343;-70
2022/01/24 02:35:56;;;;;;;26.98;24.58;;;16.90;54.60;;;;;;4994321;28;93315;-71
2022/01/24 02:49:27;;;;;;;26.17;23.85;;;16.90;54.60;;;;;;4993104;28;92761;-72
2022/01/24 02:52:05;;;;;;;26.38;23.98;;;16.80;54.60;;;;;;4994776;28;92759;-71
2022/01/24 02:54:32;;;;;;;24.88;22.67;;;16.90;54.50;;;;;;4994839;28;94800;-71
2022/01/24 02:57:00;;;;;;;24.58;22.45;;;16.80;54.50;;;;;;4995371;28;92655;-71
2022/01/24 02:59:26;;;;;;;24.30;22.17;;;16.80;54.50;;;;;;4996140;28;92829;-72
2022/01/24 03:01:52;;;;;;;24.30;22.13;;;16.90;54.50;;;;;;4996213;28;92475;-71
2022/01/24 03:04:18;;;;;;;23.48;21.48;;;16.80;54.40;;;;;;4993665;28;96687;-71
2022/01/24 03:06:45;;;;;;;23.60;21.50;;;16.80;54.40;;;;;;4993804;28;95784;-71
2022/01/24 03:09:12;;;;;;;23.38;21.38;;;16.80;54.50;;;;;;4994984;28;92792;-72
2022/01/24 03:14:16;;;;;;;23.05;21.08;;;16.80;54.30;;;;;;4993346;28;93153;-72
2022/01/24 03:16:43;;;;;;;22.70;20.80;;;16.80;54.30;;;;;;4996034;28;93090;-71
2022/01/24 03:19:11;;;;;;;22.48;20.48;;;16.80;54.30;;;;;;4996390;28;93685;-72
2022/01/24 03:21:37;;;;;;;22.75;20.73;;;16.80;54.30;;;;;;4995821;28;91933;-71
2022/01/24 03:24:02;;;;;;;22.25;20.27;;;16.80;54.30;;;;;;4994804;28;93631;-70
2022/01/24 03:26:29;;;;;;;21.95;19.95;;;16.80;54.20;;;;;;4994348;28;94992;-72
2022/01/24 03:28:54;;;;;;;22.58;20.58;;;16.80;54.20;;;;;;4992575;28;101522;-71
2022/01/24 03:31:20;;;;;;;21.95;19.95;;;16.80;54.30;;;;;;4994208;28;92658;-72
2022/01/24 03:33:46;;;;;;;20.92;19.23;;;16.80;54.20;;;;;;4992961;28;93211;-72
2022/01/24 03:36:12;;;;;;;21.42;19.52;;;16.80;54.20;;;;;;4992477;28;92545;-72
2022/01/24 03:38:39;;;;;;;21.55;19.52;;;16.80;54.50;;;;;;4992588;28;92965;-72
2022/01/24 03:41:04;;;;;;;21.33;19.40;;;16.80;54.20;;;;;;4992302;28;93201;-70
2022/01/24 03:43:30;;;;;;;21.30;19.40;;;16.70;54.10;;;;;;4991968;28;93081;-72
2022/01/24 03:46:12;;;;;;;20.52;18.70;;;16.70;54.10;;;;;;4992516;28;92803;-72
2022/01/24 03:49:45;;;;;;;20.80;18.90;;;16.80;54.20;;;;;;4992398;28;92987;-71
2022/01/24 03:51:32;;;;;;;20.23;18.42;;;16.70;54.10;;;;;;4987427;28;94080;-71
2022/01/24 03:53:57;;;;;;;19.90;18.25;;;16.70;54.20;;;;;;4990025;28;97340;-72
2022/01/24 03:56:23;;;;;;;19.67;17.98;;;16.70;54.10;;;;;;4991150;28;99201;-71
2022/01/24 03:58:48;;;;;;;20.05;18.40;;;16.70;53.90;;;;;;4991827;28;93659;-72
2022/01/24 05:45:16;;;;;;;14.23;12.82;;;17.90;50.60;;;;;;4990211;28;96776;-71
2022/01/24 05:47:42;;;;;;;14.52;13.02;;;17.90;50.60;;;;;;4992397;28;96530;-71
2022/01/24 05:50:09;;;;;;;14.00;12.60;;;17.90;50.60;;;;;;4991641;28;92803;-71
2022/01/24 05:52:34;;;;;;;13.68;12.27;;;18.00;50.60;;;;;;4993059;28;92939;-71
2022/01/24 05:55:00;;;;;;;13.73;12.43;;;18.00;50.70;;;;;;4991916;28;92924;-71
2022/01/24 05:57:26;;;;;;;14.02;12.63;;;18.00;50.60;;;;;;4992174;28;92509;-71
2022/01/24 05:59:52;;;;;;;13.73;12.43;;;17.90;50.60;;;;;;4992701;28;92974;-71
2022/01/24 06:02:18;;;;;;;14.20;12.80;;;18.00;50.70;;;;;;4992680;28;91748;-71
2022/01/24 06:04:43;;;;;;;13.30;12.00;;;17.90;50.50;;;;;;4991755;28;92994;-71
2022/01/24 06:07:09;;;;;;;13.70;12.40;;;18.00;50.60;;;;;;4991100;28;93223;-71
2022/01/24 06:09:34;;;;;;;13.32;12.02;;;18.00;50.60;;;;;;4990116;28;95430;-71
2022/01/24 06:12:00;;;;;;;12.82;11.63;;;18.00;50.60;;;;;;4991397;28;92891;-71
2022/01/24 06:14:26;;;;;;;13.68;12.27;;;17.90;50.40;;;;;;4991196;28;93062;-71
2022/01/24 06:16:52;;;;;;;13.30;12.00;;;18.00;50.50;;;;;;4990168;28;92644;-71
2022/01/24 06:19:18;;;;;;;14.73;13.23;;;17.90;50.40;;;;;;4990740;28;92852;-71
2022/01/24 06:21:45;;;;;;;13.65;12.25;;;17.90;50.50;;;;;;4991619;28;92896;-71
2022/01/24 06:24:12;;;;;;;13.57;12.18;;;17.90;50.50;;;;;;4989652;28;93674;-69
2022/01/24 06:26:39;;;;;;;13.60;12.20;;;17.90;50.50;;;;;;4989653;28;93344;-71
2022/01/24 06:29:07;;;;;;;14.63;13.13;;;17.90;50.50;;;;;;4990771;28;92993;-71
2022/01/24 06:31:33;;;;;;;13.48;12.15;;;17.80;50.30;;;;;;4990977;28;92520;-71
2022/01/24 06:33:58;;;;;;;14.40;13.00;;;17.80;50.40;;;;;;4989628;28;96055;-70
2022/01/24 06:36:24;;;;;;;13.02;11.73;;;17.80;50.50;;;;;;4990444;28;95115;-70
2022/01/24 06:38:50;;;;;;;13.77;12.38;;;17.80;50.60;;;;;;4989604;28;92481;-70
2022/01/24 06:41:21;;;;;;;13.80;12.25;;;17.70;50.70;;;;;;4990519;28;92614;-70
2022/01/24 06:43:47;;;;;;;12.95;11.65;;;17.70;50.70;;;;;;4987939;28;94875;-70
2022/01/24 06:46:13;;;;;;;14.32;12.82;;;17.70;50.80;;;;;;4988887;28;93397;-70
2022/01/24 06:48:38;;;;;;;14.38;12.70;;;17.70;51.00;;;;;;4990373;28;92740;-71
2022/01/24 06:51:10;;;;;;;13.85;12.38;;;17.60;51.10;;;;;;4990924;28;93104;-71
2022/01/24 06:53:36;;;;;;;13.93;12.52;;;17.60;51.20;;;;;;4989997;28;94634;-70
2022/01/24 06:56:02;;;;;;;14.20;12.75;;;17.60;51.30;;;;;;4990120;28;92753;-70
2022/01/24 06:58:28;;;;;;;14.30;12.77;;;17.60;51.30;;;;;;4988839;28;95143;-70
2022/01/24 07:00:54;;;;;;;15.30;12.55;;;17.60;51.40;;;;;;4991328;28;92500;-71
2022/01/24 07:03:20;;;;;;;14.60;13.10;;;17.50;51.60;;;;;;4993438;28;92943;-70
2022/01/24 07:05:46;;;;;;;14.35;12.85;;;17.50;51.60;;;;;;4993533;28;92952;-70
2022/01/24 07:08:12;;;;;;;15.18;12.60;;;17.50;51.70;;;;;;4993624;28;92860;-71
2022/01/24 07:10:41;;;;;;;16.05;13.75;;;17.40;51.80;;;;;;4993238;28;93037;-71
2022/01/24 07:13:07;;;;;;;15.00;13.40;;;17.40;51.90;;;;;;4993708;28;98310;-71
2022/01/24 07:15:40;;;;;;;14.93;13.38;;;17.40;51.90;;;;;;4993794;28;92872;-70
2022/01/24 07:20:35;;;;;;;15.20;13.35;;;17.30;52.10;;;;;;4993632;28;92509;-70
2022/01/24 07:23:05;;;;;;;15.63;13.90;;;17.30;52.10;;;;;;4992142;28;97636;-70
2022/01/24 07:25:30;;;;;;;16.45;14.35;;;17.30;52.10;;;;;;4993831;28;95465;-70
2022/01/24 07:27:56;;;;;;;16.30;13.95;;;17.20;52.10;;;;;;4994095;28;92533;-70
2022/01/24 07:30:21;;;;;;;15.95;14.07;;;17.20;52.20;;;;;;4993911;28;92514;-69
2022/01/24 07:32:47;;;;;;;16.58;14.88;;;17.20;52.30;;;;;;4993058;28;95493;-70
2022/01/24 07:35:13;;;;;;;15.68;14.07;;;17.20;52.40;;;;;;4993415;28;92772;-70
2022/01/24 07:37:38;;;;;;;15.55;13.88;;;17.20;52.30;;;;;;4993170;28;92917;-70
2022/01/24 07:40:08;;;;;;;17.45;14.95;;;17.10;52.40;;;;;;4994178;28;92406;-71
2022/01/24 07:45:18;;;;;;;16.00;14.40;;;17.00;52.40;;;;;;4993247;28;92686;-70
2022/01/24 07:47:46;;;;;;;14.98;13.45;;;17.00;52.50;;;;;;4991918;28;94970;-71
2022/01/24 07:50:12;;;;;;;16.17;14.48;;;17.00;52.60;;;;;;4993534;28;92528;-70
2022/01/24 07:52:38;;;;;;;16.58;14.52;;;17.00;52.60;;;;;;4992509;28;94265;-71
2022/01/24 07:55:04;;;;;;;17.38;14.98;;;17.00;52.60;;;;;;4992809;28;93258;-71
2022/01/24 07:57:29;;;;;;;16.13;14.32;;;16.90;52.70;;;;;;4992598;28;92889;-71
2022/01/24 07:59:56;;;;;;;16.00;14.30;;;16.90;52.70;;;;;;4992816;28;100048;-71
2022/01/24 08:02:24;;;;;;;16.50;14.73;;;16.90;52.70;;;;;;4996475;28;93051;-70
2022/01/24 08:04:56;;;;;;;16.30;14.60;;;16.90;52.60;;;;;;4996500;28;99450;-71
2022/01/24 08:07:28;;;;;;;16.50;14.27;;;16.90;52.70;;;;;;4996246;28;92837;-71
2022/01/24 08:09:54;;;;;;;17.05;14.57;;;16.90;52.70;;;;;;4993369;28;92485;-70
2022/01/24 08:12:20;;;;;;;16.40;14.52;;;16.80;52.70;;;;;;4988650;28;104802;-70
2022/01/24 08:14:45;;;;;;;17.90;15.30;;;16.80;52.70;;;;;;4992903;28;96313;-71
2022/01/24 08:17:11;;;;;;;17.50;14.77;;;16.80;52.70;;;;;;4991671;28;95450;-69
2022/01/24 08:19:37;;;;;;;17.65;14.68;;;16.80;52.70;;;;;;4991503;28;92510;-70
2022/01/24 08:22:02;;;;;;;16.02;14.30;;;16.80;52.80;;;;;;4991546;28;93151;-70
2022/01/24 08:24:28;;;;;;;17.25;14.60;;;16.80;52.80;;;;;;4993162;28;94337;-70
2022/01/24 08:26:54;;;;;;;17.85;15.07;;;16.80;52.90;;;;;;4992194;28;93068;-72
2022/01/24 08:29:20;;;;;;;16.92;14.73;;;16.80;52.80;;;;;;4993163;28;92305;-70
2022/01/24 08:31:46;;;;;;;16.52;14.70;;;16.80;52.80;;;;;;4992430;28;93166;-69
2022/01/24 08:34:11;;;;;;;16.60;14.27;;;16.80;52.80;;;;;;4992509;28;92884;-70
2022/01/24 08:36:37;;;;;;;15.45;13.57;;;16.80;52.60;;;;;;4990900;28;94934;-69
2022/01/24 08:39:08;;;;;;;15.80;14.15;;;16.80;52.60;;;;;;4992152;28;92496;-69
2022/01/24 08:41:43;;;;;;;16.13;14.32;;;16.80;52.50;;;;;;4992328;28;92875;-70
2022/01/24 08:44:19;;;;;;;14.85;13.25;;;16.80;52.40;;;;;;4991462;28;94049;-70
2022/01/24 08:46:48;;;;;;;15.80;13.90;;;16.90;52.40;;;;;;4991333;28;94136;-70
2022/01/24 08:49:14;;;;;;;16.98;14.30;;;16.90;52.30;;;;;;4991265;28;93053;-70
2022/01/24 08:51:41;;;;;;;16.55;14.27;;;16.90;52.20;;;;;;4990969;28;93366;-72
2022/01/24 08:54:08;;;;;;;15.40;13.80;;;16.90;52.20;;;;;;4992302;28;93164;-71
2022/01/24 08:56:35;;;;;;;15.32;13.63;;;16.90;52.20;;;;;;4991171;28;92770;-70
2022/01/24 08:59:02;;;;;;;16.50;14.18;;;16.90;52.00;;;;;;4992027;28;93028;-70
2022/01/24 09:01:27;;;;;;;15.55;13.75;;;16.90;52.00;;;;;;4990361;28;96334;-69
2022/01/24 09:03:54;;;;;;;15.55;13.90;;;16.90;52.00;;;;;;4992033;28;95706;-70
2022/01/24 09:06:21;;;;;;;15.25;13.40;;;16.90;52.00;;;;;;4991303;28;92557;-70
2022/01/24 09:08:55;;;;;;;16.33;12.88;;;16.90;51.90;;;;;;4991387;28;93757;-70
2022/01/24 09:11:27;;;;;;;14.90;13.13;;;16.90;51.80;;;;;;4991685;28;93441;-69
2022/01/24 09:13:52;;;;;;;15.93;13.30;;;16.90;51.80;;;;;;4991955;28;94226;-70
2022/01/24 09:16:18;;;;;;;15.77;12.95;;;16.90;51.80;;;;;;4991731;28;94096;-70
2022/01/24 09:18:43;;;;;;;14.38;12.88;;;16.90;51.80;;;;;;4993996;28;92024;-69
2022/01/24 09:21:09;;;;;;;15.60;12.93;;;16.90;51.80;;;;;;4991666;28;97400;-70
2022/01/24 09:23:35;;;;;;;13.93;12.52;;;16.90;51.80;;;;;;4992212;28;92795;-70
2022/01/24 09:26:01;;;;;;;15.27;13.02;;;16.90;51.70;;;;;;4989629;28;94817;-72
2022/01/24 09:28:27;;;;;;;15.85;13.35;;;16.90;51.70;;;;;;4993362;28;92587;-70
2022/01/24 09:30:53;;;;;;;14.95;12.43;;;16.90;51.70;;;;;;4990797;28;95280;-70
2022/01/24 09:33:18;;;;;;;16.02;12.68;;;16.90;51.70;;;;;;4992187;28;93398;-70
2022/01/24 09:35:45;;;;;;;14.07;12.23;;;16.90;51.70;;;;;;4992656;28;93028;-71
2022/01/24 09:38:20;;;;;;;14.00;12.32;;;16.90;51.60;;;;;;4992022;28;92543;-71
2022/01/24 09:40:48;;;;;;;13.18;11.75;;;16.90;51.70;;;;;;4992655;28;95052;-72
2022/01/24 09:43:14;;;;;;;14.35;12.07;;;16.90;51.60;;;;;;4991889;28;91949;-71
2022/01/24 09:45:39;;;;;;;13.43;12.02;;;16.90;51.50;;;;;;4991892;28;93151;-70
2022/01/24 09:48:13;;;;;;;13.38;11.90;;;16.90;51.60;;;;;;5015170;28;93022;-70
2022/01/24 09:50:39;;;;;;;15.38;11.93;;;16.90;51.50;;;;;;5014111;28;97083;-70
2022/01/24 09:53:06;;;;;;;15.07;12.82;;;16.90;51.60;;;;;;5013295;28;95254;-68
2022/01/24 09:55:32;;;;;;;13.10;11.70;;;16.90;51.60;;;;;;5012830;28;92422;-70
2022/01/24 09:57:58;;;;;;;12.98;11.57;;;16.90;51.60;;;;;;5011869;28;92749;-70
2022/01/24 10:00:27;;;;;;;12.98;11.57;;;16.90;51.60;;;;;;5012033;28;93719;-71
2022/01/24 10:02:55;;;;;;;13.07;11.10;;;16.90;51.60;;;;;;5011711;28;92593;-70
2022/01/24 10:05:30;;;;;;;13.50;11.65;;;16.90;51.50;;;;;;5011159;28;92975;-69
2022/01/24 10:08:03;;;;;;;14.10;11.65;;;16.90;51.60;;;;;;5012063;28;91754;-69
2022/01/24 10:10:39;;;;;;;12.52;11.23;;;16.90;51.50;;;;;;5011685;28;93159;-69
2022/01/24 10:19:18;;;;;;;11.90;10.70;;;16.90;51.40;;;;;;5011094;28;92866;-71
2022/01/24 10:21:47;;;;;;;13.27;10.75;;;16.80;51.40;;;;;;5012114;28;93141;-71
2022/01/24 10:24:29;;;;;;;12.43;10.90;;;16.80;51.40;;;;;;5011958;28;92868;-70
2022/01/24 10:27:08;;;;;;;12.43;10.68;;;16.80;51.30;;;;;;5010624;28;92849;-70
2022/01/24 10:29:51;;;;;;;13.32;10.95;;;16.90;51.40;;;;;;5011389;28;93021;-71
2022/01/24 10:32:32;;;;;;;11.93;10.70;;;16.80;51.40;;;;;;5010693;28;93016;-70
2022/01/24 10:35:24;;;;;;;12.18;10.85;;;16.80;51.40;;;;;;5012005;28;93248;-71
2022/01/24 10:37:53;;;;;;;12.30;10.30;;;16.80;51.40;;;;;;5014902;28;92488;-71
2022/01/24 10:40:48;;;;;;;13.43;11.55;;;16.80;51.40;;;;;;5015267;28;92830;-71
2022/01/24 10:43:18;;;;;;;12.07;10.57;;;16.80;51.40;;;;;;5011528;28;97615;-70
2022/01/24 10:45:45;;;;;;;12.00;10.80;;;16.80;51.40;;;;;;5015040;28;95258;-70
2022/01/24 10:48:11;;;;;;;11.73;10.43;;;16.80;51.30;;;;;;5015487;28;93034;-70
2022/01/24 10:50:37;;;;;;;11.27;10.15;;;16.80;51.40;;;;;;5015072;28;92721;-71
2022/01/24 10:53:14;;;;;;;11.55;10.27;;;16.80;51.30;;;;;;5015012;28;94290;-71
2022/01/24 10:55:47;;;;;;;11.55;10.35;;;16.80;51.30;;;;;;5014902;28;93010;-71
2022/01/24 10:58:18;;;;;;;12.05;10.77;;;16.80;51.30;;;;;;5015038;28;92823;-70
2022/01/24 11:00:46;;;;;;;11.50;10.30;;;16.80;51.30;;;;;;5014328;28;92323;-70
2022/01/24 11:03:17;;;;;;;11.35;10.13;;;16.80;51.30;;;;;;5013751;28;93081;-70
2022/01/24 11:05:44;;;;;;;12.90;10.20;;;16.80;51.30;;;;;;5013585;28;92780;-71
2022/01/24 11:08:12;;;;;;;11.30;10.10;;;16.80;51.20;;;;;;5013709;28;94958;-71
2022/01/24 11:10:43;;;;;;;10.68;9.57;;;16.80;51.20;;;;;;5014817;28;92550;-70
2022/01/24 11:13:10;;;;;;;10.70;9.60;;;16.80;51.20;;;;;;5014653;28;93066;-71
2022/01/24 11:15:43;;;;;;;10.57;9.48;;;16.80;51.20;;;;;;5015263;28;92651;-71
2022/01/24 11:18:14;;;;;;;11.63;9.83;;;16.80;51.20;;;;;;5014545;28;92664;-71
2022/01/24 11:20:45;;;;;;;11.45;9.20;;;16.80;51.20;;;;;;5015183;28;92475;-70
2022/01/24 11:23:12;;;;;;;10.73;9.65;;;16.80;51.30;;;;;;5014489;28;94497;-71
2022/01/24 11:25:42;;;;;;;10.80;9.52;;;16.80;51.30;;;;;;5014109;28;92800;-70
2022/01/24 11:28:08;;;;;;;11.13;9.55;;;16.80;51.30;;;;;;5014653;28;92486;-70
2022/01/24 11:31:07;;;;;;;11.38;9.85;;;16.80;51.20;;;;;;5014846;28;92592;-71
2022/01/24 11:33:52;;;;;;;10.13;9.07;;;16.80;51.20;;;;;;5015239;28;95531;-70
2022/01/24 11:36:19;;;;;;;10.50;9.15;;;16.80;51.20;;;;;;5019044;28;95243;-71
2022/01/24 11:38:45;;;;;;;9.93;8.90;;;16.80;51.20;;;;;;5015060;28;93114;-70
2022/01/24 11:41:25;;;;;;;10.48;9.30;;;16.80;51.20;;;;;;5014615;28;93207;-70
2022/01/24 11:43:55;;;;;;;9.55;8.55;;;16.80;51.00;;;;;;5013800;28;94099;-71
2022/01/24 11:46:42;;;;;;;9.98;8.90;;;16.80;51.10;;;;;;5013103;28;93027;-70
2022/01/24 11:49:10;;;;;;;9.95;8.95;;;16.80;51.00;;;;;;5013792;28;93208;-70
2022/01/24 11:51:38;;;;;;;9.40;8.50;;;16.80;51.00;;;;;;5015211;28;92123;-70
2022/01/24 11:54:31;;;;;;;9.75;8.57;;;16.80;50.90;;;;;;5014174;28;93572;-70
2022/01/24 11:57:22;;;;;;;9.60;8.43;;;16.80;50.90;;;;;;5000562;28;94433;-70
2022/01/24 12:00:08;;;;;;;9.35;8.35;;;16.80;50.90;;;;;;5014204;28;95405;-70
2022/01/24 12:02:49;;;;;;;9.20;8.30;;;16.70;50.90;;;;;;4998499;28;92778;-70
2022/01/24 12:05:22;;;;;;;10.00;8.27;;;16.80;50.90;;;;;;5013948;28;93619;-70
2022/01/24 12:07:52;;;;;;;9.48;8.48;;;16.80;50.80;;;;;;5014048;28;93955;-70
2022/01/24 12:10:23;;;;;;;9.07;8.07;;;16.80;50.80;;;;;;5013602;28;92895;-72
2022/01/24 12:13:01;;;;;;;9.07;8.10;;;16.80;50.80;;;;;;5014326;28;92621;-70
2022/01/24 12:15:42;;;;;;;8.73;7.93;;;16.80;50.80;;;;;;5012817;28;94697;-70
2022/01/24 12:18:27;;;;;;;9.20;8.20;;;16.80;50.80;;;;;;5014209;28;93326;-70
2022/01/24 12:21:14;;;;;;;8.93;8.02;;;16.80;50.80;;;;;;5014187;28;92540;-70
2022/01/24 12:23:48;;;;;;;9.68;8.18;;;16.80;50.70;;;;;;5013195;28;92577;-68
2022/01/24 12:26:15;;;;;;;8.50;7.60;;;16.80;50.60;;;;;;5012511;28;95560;-70
2022/01/24 12:28:46;;;;;;;8.27;7.43;;;16.80;50.70;;;;;;5013952;28;95122;-70
2022/01/24 12:31:28;;;;;;;8.85;8.05;;;16.80;50.70;;;;;;5014231;28;92530;-70
2022/01/24 12:33:54;;;;;;;8.35;7.55;;;16.80;51.00;;;;;;5014176;28;93015;-70
2022/01/24 12:36:39;;;;;;;8.15;7.35;;;16.80;50.60;;;;;;5013620;28;93002;-70
2022/01/24 12:39:13;;;;;;;8.40;7.57;;;16.80;50.60;;;;;;5012455;28;93997;-70
2022/01/24 12:41:46;;;;;;;8.77;7.88;;;16.80;50.60;;;;;;5014276;28;92498;-71
2022/01/24 12:46:57;;;;;;;8.85;7.95;;;16.80;50.70;;;;;;5013458;28;93156;-70
2022/01/24 12:49:25;;;;;;;7.80;7.00;;;16.80;50.70;;;;;;5014197;28;94932;-70
2022/01/24 12:51:51;;;;;;;8.45;7.65;;;16.80;50.60;;;;;;4994120;28;95566;-70
2022/01/24 12:54:17;;;;;;;8.07;7.28;;;16.80;50.70;;;;;;5013929;28;92873;-70
2022/01/24 12:56:43;;;;;;;7.55;6.80;;;16.80;50.60;;;;;;4995099;28;96633;-70
2022/01/24 12:59:10;;;;;;;8.57;7.63;;;16.80;50.60;;;;;;5012973;28;93367;-71
2022/01/24 13:01:41;;;;;;;8.43;7.63;;;16.80;50.60;;;;;;5013145;28;93157;-70
2022/01/24 13:04:12;;;;;;;8.45;7.60;;;16.80;50.50;;;;;;5013329;28;92499;-69
2022/01/24 13:06:46;;;;;;;8.30;7.50;;;16.80;50.50;;;;;;5013104;28;93155;-69
2022/01/24 13:09:19;;;;;;;8.30;7.40;;;16.80;50.40;;;;;;5014039;28;92936;-69
2022/01/24 13:11:55;;;;;;;8.05;7.25;;;16.80;50.40;;;;;;5012929;28;92880;-69
2022/01/24 13:14:30;;;;;;;7.95;7.25;;;16.80;50.40;;;;;;5012571;28;93327;-69
2022/01/24 13:22:57;;;;;;;7.43;6.72;;;16.80;50.40;;;;;;5014914;28;92522;-70
2022/01/24 13:25:38;;;;;;;8.05;7.30;;;16.70;50.30;;;;;;5015953;28;93050;-70
2022/01/24 13:28:12;;;;;;;7.82;7.03;;;16.80;50.40;;;;;;5012581;28;94350;-70
2022/01/24 13:30:47;;;;;;;7.75;6.95;;;16.80;50.40;;;;;;5014026;28;93869;-70
2022/01/24 13:33:16;;;;;;;7.60;6.80;;;16.80;50.40;;;;;;5013864;28;92882;-70
2022/01/24 13:35:48;;;;;;;7.43;6.72;;;16.80;50.40;;;;;;5013618;28;91776;-69
2022/01/24 13:38:25;;;;;;;7.50;6.80;;;16.80;50.40;;;;;;5013170;28;94713;-70
2022/01/24 13:41:12;;;;;;;7.05;6.35;;;16.70;50.40;;;;;;5011983;28;93148;-69
2022/01/24 13:44:02;;;;;;;7.43;6.72;;;16.80;50.30;;;;;;5010907;28;95443;-70
2022/01/24 13:46:30;;;;;;;7.50;6.80;;;16.80;50.30;;;;;;5013459;28;92970;-69
2022/01/24 13:49:01;;;;;;;8.38;6.95;;;16.80;50.40;;;;;;5012825;28;93272;-71
2022/01/24 13:51:35;;;;;;;7.60;6.65;;;16.80;50.20;;;;;;5013140;28;93150;-70
2022/01/24 13:54:02;;;;;;;7.30;6.60;;;16.80;50.20;;;;;;5011713;28;93563;-70
2022/01/24 13:56:39;;;;;;;6.85;6.25;;;16.80;50.20;;;;;;5012572;28;92931;-70
2022/01/24 13:59:10;;;;;;;7.00;6.40;;;16.80;50.10;;;;;;5011568;28;96552;-71
2022/01/24 14:01:59;;;;;;;7.50;6.72;;;16.80;50.10;;;;;;5012016;28;92798;-71
2022/01/24 14:04:36;;;;;;;7.53;6.72;;;16.80;50.00;;;;;;5012796;28;92572;-71
2022/01/24 14:07:12;;;;;;;7.22;6.53;;;16.80;50.00;;;;;;5011907;28;92854;-71
2022/01/24 14:09:45;;;;;;;7.30;6.60;;;16.80;50.00;;;;;;4991279;28;98909;-70
2022/01/24 14:12:21;;;;;;;7.10;6.40;;;16.80;49.90;;;;;;5011701;28;95012;-71
2022/01/24 14:15:01;;;;;;;6.95;6.25;;;16.80;49.90;;;;;;5012166;28;92592;-71
2022/01/24 14:20:10;;;;;;;7.03;6.32;;;16.80;49.90;;;;;;5010929;28;93624;-71
2022/01/24 14:22:44;;;;;;;6.90;6.30;;;16.80;49.70;;;;;;5011926;28;95088;-70
2022/01/24 14:25:18;;;;;;;7.35;6.60;;;16.80;49.70;;;;;;5010623;28;92593;-71
2022/01/24 14:28:06;;;;;;;6.65;6.03;;;16.80;49.70;;;;;;5011673;28;92187;-70
2022/01/24 14:30:50;;;;;;;6.60;5.90;;;16.80;49.70;;;;;;5010872;28;93259;-70
2022/01/24 14:33:15;;;;;;;6.80;6.13;;;16.80;49.60;;;;;;5010853;28;92775;-70
2022/01/24 14:35:50;;;;;;;6.63;5.90;;;16.80;49.60;;;;;;5009988;28;95181;-70
2022/01/24 14:38:43;;;;;;;6.65;6.05;;;16.90;49.70;;;;;;5011524;28;92836;-71
2022/01/24 14:41:17;;;;;;;6.27;5.63;;;16.90;49.50;;;;;;4998109;28;93463;-70
2022/01/24 14:46:38;;;;;;;6.30;5.43;;;16.90;49.60;;;;;;4944271;28;92794;-70
2022/01/24 14:49:07;;;;;;;6.50;5.80;;;16.90;49.60;;;;;;4991586;28;92541;-71
2022/01/24 14:51:39;;;;;;;5.57;5.07;;;16.90;49.60;;;;;;4992085;28;93110;-71
2022/01/24 14:54:18;;;;;;;5.93;5.40;;;16.80;49.50;;;;;;4991451;28;92130;-71
2022/01/24 14:56:47;;;;;;;6.40;5.80;;;16.90;49.40;;;;;;4991813;28;92569;-72
2022/01/24 14:59:13;;;;;;;5.75;5.15;;;16.90;49.40;;;;;;4992120;28;92520;-72
2022/01/24 15:01:40;;;;;;;6.55;5.53;;;16.90;49.40;;;;;;4990515;28;95540;-71
2022/01/24 15:04:07;;;;;;;6.25;5.65;;;16.90;49.50;;;;;;4992492;28;96230;-71
2022/01/24 15:06:44;;;;;;;6.40;5.63;;;16.90;49.30;;;;;;4993844;28;92568;-72
2022/01/24 15:09:24;;;;;;;5.97;5.38;;;16.90;49.30;;;;;;4995761;28;93227;-71
2022/01/24 15:11:52;;;;;;;6.40;5.70;;;16.90;49.30;;;;;;4994373;28;93117;-71
2022/01/24 15:14:24;;;;;;;5.78;5.03;;;16.90;49.40;;;;;;4995495;28;93028;-70
2022/01/24 15:27:14;;;;;;;6.43;5.60;;;16.90;49.40;;;;;;4992711;28;95045;-71
2022/01/24 15:29:40;;;;;;;5.57;5.03;;;16.90;49.30;;;;;;4994182;28;92936;-71
2022/01/24 15:32:07;;;;;;;5.97;5.40;;;16.90;49.30;;;;;;4994013;28;93232;-71
2022/01/24 15:34:37;;;;;;;6.18;5.40;;;16.90;49.30;;;;;;4994412;28;92548;-71
2022/01/24 15:37:05;;;;;;;5.70;5.20;;;16.90;49.20;;;;;;4994425;28;93026;-71
2022/01/24 15:39:32;;;;;;;6.15;5.05;;;16.90;49.20;;;;;;4994351;28;92631;-71
2022/01/24 15:42:03;;;;;;;6.78;4.95;;;16.90;49.20;;;;;;4995303;28;92985;-70
2022/01/24 15:47:31;;;;;;;5.65;5.07;;;16.90;49.20;;;;;;4994600;28;92841;-71
2022/01/24 15:49:52;;;;;;;5.35;4.85;;;16.90;49.40;;;;;;4993448;28;92508;-71
2022/01/24 15:52:17;;;;;;;5.18;4.68;;;17.00;49.30;;;;;;4992419;28;111334;-70
2022/01/24 15:54:50;;;;;;;5.30;4.47;;;17.10;49.10;;;;;;4994073;28;96569;-71
2022/01/24 16:00:00;;;;;;;4.90;4.40;;;17.30;48.60;;;;;;4994427;28;92622;-71
2022/01/24 16:02:25;;;;;;;4.30;3.90;;;17.40;48.40;;;;;;4993621;28;93527;-71
2022/01/24 16:04:51;;;;;;;4.43;4.03;;;17.50;48.20;;;;;;4993858;28;92661;-69
2022/01/24 16:07:16;;;;;;;4.90;4.10;;;17.60;48.00;;;;;;4994137;28;92464;-71
2022/01/24 16:09:42;;;;;;;4.22;3.80;;;17.70;47.90;;;;;;4994463;28;91793;-71
2022/01/24 16:12:08;;;;;;;4.30;3.40;;;17.80;47.70;;;;;;4993696;28;92966;-71
2022/01/24 16:14:34;;;;;;;4.45;4.05;;;17.90;47.60;;;;;;4993412;28;93378;-71
2022/01/24 16:17:01;;;;;;;4.20;3.80;;;18.00;47.50;;;;;;4993211;28;95395;-71
2022/01/24 16:19:31;;;;;;;4.43;4.00;;;18.00;47.40;;;;;;4994798;28;92515;-71
2022/01/24 16:27:01;;;;;;;3.80;3.50;;;18.00;47.20;;;;;;4993004;28;92868;-71